createdAt,value
2023-01-29T00:02:22.776Z,92.46
2023-01-29T00:04:51.248Z,92.65
2023-01-29T00:07:18.759Z,92.08
2023-01-29T00:09:45.549Z,92.98
2023-01-29T00:12:31.509Z,91.74
2023-01-29T00:14:59.669Z,92.36
2023-01-29T00:17:26.467Z,92.08
2023-01-29T00:19:53.316Z,92.36
2023-01-29T00:22:20.674Z,92.29
2023-01-29T00:24:47.989Z,91.74
2023-01-29T00:27:14.998Z,92.22
2023-01-29T00:29:43.242Z,92.23
2023-01-29T00:32:10.034Z,92.07
2023-01-29T00:34:36.884Z,91.80
2023-01-29T00:37:03.734Z,91.91
2023-01-29T00:39:45.983Z,91.70
2023-01-29T00:42:14.197Z,92.84
2023-01-29T00:44:41.098Z,92.05
2023-01-29T00:47:09.771Z,91.53
2023-01-29T00:49:36.613Z,92.45
2023-01-29T00:52:03.722Z,91.78
2023-01-29T00:54:32.939Z,91.79
2023-01-29T00:57:00.150Z,91.89
2023-01-29T00:59:26.999Z,91.75
2023-01-29T01:01:54.067Z,91.78
2023-01-29T01:04:22.759Z,92.26
2023-01-29T01:06:49.732Z,92.27
2023-01-29T01:09:16.650Z,92.71
2023-01-29T01:11:44.011Z,92.43
2023-01-29T01:14:10.920Z,92.52
2023-01-29T01:16:37.923Z,92.46
2023-01-29T01:19:05.647Z,92.23
2023-01-29T01:21:34.150Z,92.01
2023-01-29T01:24:01.027Z,92.87
2023-01-29T01:26:28.023Z,92.41
2023-01-29T01:28:54.806Z,91.93
2023-01-29T01:31:21.917Z,92.43
2023-01-29T01:33:48.879Z,92.27
2023-01-29T01:36:15.803Z,92.20
2023-01-29T01:38:44.633Z,91.73
2023-01-29T01:41:17.802Z,92.50
2023-01-29T01:43:49.930Z,93.27
2023-01-29T01:46:16.950Z,93.57
2023-01-29T01:48:46.360Z,93.38
2023-01-29T01:51:15.074Z,92.25
2023-01-29T01:53:50.299Z,93.08
2023-01-29T01:56:22.814Z,93.03
2023-01-29T01:58:54.758Z,93.10
2023-01-29T02:01:25.729Z,93.15
2023-01-29T02:03:56.856Z,93.13
2023-01-29T02:06:24.078Z,92.99
2023-01-29T02:08:56.812Z,93.39
2023-01-29T02:11:24.662Z,93.79
2023-01-29T02:13:52.633Z,93.21
2023-01-29T02:16:23.971Z,93.52
2023-01-29T02:18:51.038Z,94.21
2023-01-29T02:21:36.606Z,93.20
2023-01-29T02:24:32.857Z,93.62
2023-01-29T02:27:08.179Z,93.85
2023-01-29T02:29:45.684Z,93.02
2023-01-29T02:32:21.146Z,93.28
2023-01-29T02:35:00.547Z,93.41
2023-01-29T02:37:36.510Z,93.57
2023-01-29T02:40:12.713Z,93.42
2023-01-29T02:42:47.689Z,93.90
2023-01-29T02:45:22.623Z,93.75
2023-01-29T02:47:56.212Z,94.38
2023-01-29T02:50:28.361Z,93.62
2023-01-29T02:53:02.069Z,93.64
2023-01-29T02:55:34.706Z,93.26
2023-01-29T02:58:11.370Z,93.31
2023-01-29T03:00:42.944Z,93.47
2023-01-29T03:03:16.046Z,93.93
2023-01-29T03:05:50.479Z,93.87
2023-01-29T03:08:23.639Z,93.81
2023-01-29T03:10:56.096Z,93.90
2023-01-29T03:13:30.940Z,93.95
2023-01-29T03:16:05.708Z,94.44
2023-01-29T03:18:37.225Z,94.26
2023-01-29T03:21:11.188Z,93.47
2023-01-29T03:23:38.632Z,93.75
2023-01-29T03:26:07.705Z,93.71
2023-01-29T03:28:34.844Z,93.18
2023-01-29T03:31:10.071Z,94.29
2023-01-29T03:33:43.991Z,93.55
2023-01-29T03:36:16.877Z,93.15
2023-01-29T03:38:44.994Z,93.42
2023-01-29T03:41:23.316Z,93.52
2023-01-29T03:43:56.867Z,93.41
2023-01-29T03:46:30.994Z,93.21
2023-01-29T03:49:02.569Z,93.06
2023-01-29T03:51:35.081Z,93.57
2023-01-29T03:54:09.946Z,92.84
2023-01-29T03:56:51.362Z,92.82
2023-01-29T03:59:23.082Z,93.02
2023-01-29T04:01:57.041Z,92.89
2023-01-29T04:04:28.199Z,92.99
2023-01-29T04:06:58.284Z,92.53
2023-01-29T04:09:31.108Z,92.18
2023-01-29T04:12:02.701Z,92.39
2023-01-29T04:14:31.483Z,91.98
2023-01-29T04:17:03.603Z,92.41
2023-01-29T04:19:30.668Z,92.14
2023-01-29T04:22:06.082Z,91.98
2023-01-29T04:24:34.633Z,91.96
2023-01-29T04:27:18.528Z,92.08
2023-01-29T04:29:57.013Z,91.56
2023-01-29T04:32:32.285Z,91.42
2023-01-29T04:35:17.430Z,90.84
2023-01-29T04:37:54.409Z,91.85
2023-01-29T04:40:26.083Z,91.12
2023-01-29T04:43:04.690Z,91.21
2023-01-29T04:45:43.489Z,91.74
2023-01-29T04:48:21.181Z,91.16
2023-01-29T04:50:58.388Z,91.20
2023-01-29T04:53:36.246Z,91.25
2023-01-29T04:56:13.559Z,91.04
2023-01-29T04:58:47.478Z,92.08
2023-01-29T05:01:19.412Z,91.53
2023-01-29T05:03:52.287Z,91.26
2023-01-29T05:06:20.555Z,91.17
2023-01-29T05:08:49.353Z,91.14
2023-01-29T05:11:18.985Z,91.54
2023-01-29T05:13:48.827Z,91.89
2023-01-29T05:16:28.179Z,91.46
2023-01-29T05:18:57.061Z,91.27
2023-01-29T05:21:24.959Z,91.57
2023-01-29T05:24:07.410Z,91.25
2023-01-29T05:26:35.286Z,91.62
2023-01-29T05:29:02.163Z,91.37
2023-01-29T05:31:29.166Z,91.22
2023-01-29T05:33:57.942Z,91.49
2023-01-29T05:36:25.184Z,90.58
2023-01-29T05:38:51.998Z,91.24
2023-01-29T05:41:19.921Z,91.17
2023-01-29T05:43:46.780Z,91.12
2023-01-29T05:46:13.948Z,91.15
2023-01-29T05:48:40.912Z,91.26
2023-01-29T05:51:09.213Z,91.69
2023-01-29T05:53:36.258Z,91.46
2023-01-29T05:56:04.027Z,90.85
2023-01-29T05:58:31.521Z,90.57
2023-01-29T06:00:58.449Z,91.33
2023-01-29T06:03:25.363Z,90.94
2023-01-29T06:05:52.352Z,91.44
2023-01-29T06:08:22.765Z,91.58
2023-01-29T06:10:49.629Z,91.42
2023-01-29T06:13:16.539Z,91.67
2023-01-29T06:15:52.887Z,91.56
2023-01-29T06:18:20.603Z,91.62
2023-01-29T06:20:49.669Z,92.75
2023-01-29T06:23:16.634Z,92.28
2023-01-29T06:25:45.138Z,92.47
2023-01-29T06:28:11.963Z,92.34
2023-01-29T06:30:38.878Z,92.74
2023-01-29T06:33:06.290Z,92.72
2023-01-29T06:35:33.201Z,93.13
2023-01-29T06:38:00.147Z,93.93
2023-01-29T06:40:27.239Z,94.44
2023-01-29T06:42:55.583Z,94.52
2023-01-29T06:45:23.072Z,94.63
2023-01-29T06:47:49.848Z,95.48
2023-01-29T06:50:18.049Z,94.90
2023-01-29T06:52:45.220Z,95.75
2023-01-29T06:55:12.666Z,95.35
2023-01-29T06:57:40.037Z,95.86
2023-01-29T07:00:11.127Z,95.54
2023-01-29T07:02:38.044Z,95.36
2023-01-29T07:05:05.867Z,95.92
2023-01-29T07:07:35.315Z,95.59
2023-01-29T07:10:02.477Z,95.84
2023-01-29T07:12:29.427Z,95.64
2023-01-29T07:14:56.329Z,95.50
2023-01-29T07:17:24.677Z,95.49
2023-01-29T07:19:51.844Z,95.16
2023-01-29T07:22:18.747Z,94.99
2023-01-29T07:24:45.498Z,94.96
2023-01-29T07:27:12.390Z,96.06
2023-01-29T07:29:40.588Z,96.34
2023-01-29T07:32:14.530Z,96.14
2023-01-29T07:34:43.458Z,95.76
2023-01-29T07:37:13.227Z,96.63
2023-01-29T07:39:40.045Z,96.15
2023-01-29T07:42:07.768Z,95.97
2023-01-29T07:44:34.589Z,96.29
2023-01-29T07:47:01.661Z,96.99
2023-01-29T07:49:28.561Z,96.50
2023-01-29T07:51:58.352Z,96.66
2023-01-29T07:54:25.265Z,97.18
2023-01-29T07:56:52.491Z,97.78
2023-01-29T07:59:19.455Z,98.16
2023-01-29T08:01:46.285Z,98.70
2023-01-29T08:04:46.272Z,99.20
2023-01-29T08:07:14.736Z,100.00
2023-01-29T08:09:44.549Z,99.80
2023-01-29T08:12:12.347Z,99.83
2023-01-29T08:14:42.065Z,100.00
2023-01-29T08:17:10.793Z,100.00
2023-01-29T08:19:38.041Z,99.38
2023-01-29T08:22:05.431Z,99.63
2023-01-29T08:24:47.738Z,100.00
2023-01-29T08:27:22.808Z,100.00
2023-01-29T08:29:49.657Z,100.00
2023-01-29T08:32:16.531Z,100.00
2023-01-29T08:34:43.210Z,100.00
2023-01-29T08:37:10.201Z,100.00
2023-01-29T08:39:38.650Z,100.00
2023-01-29T08:42:05.500Z,100.00
2023-01-29T08:44:32.692Z,100.00
2023-01-29T08:46:59.688Z,100.00
2023-01-29T08:49:28.224Z,100.00
2023-01-29T08:51:55.250Z,100.00
2023-01-29T08:54:22.230Z,100.00
2023-01-29T08:56:51.851Z,100.00
2023-01-29T08:59:18.828Z,100.00
2023-01-29T09:01:45.611Z,100.00
2023-01-29T09:04:12.328Z,100.00
2023-01-29T09:06:40.405Z,100.00
2023-01-29T09:09:07.170Z,100.00
2023-01-29T09:11:33.877Z,100.00
2023-01-29T09:14:02.503Z,100.00
2023-01-29T09:16:30.044Z,100.00
2023-01-29T09:18:56.898Z,100.00
2023-01-29T09:21:25.687Z,100.00
2023-01-29T09:23:52.541Z,100.00
2023-01-29T09:26:19.514Z,100.00
2023-01-29T09:28:48.839Z,100.00
2023-01-29T09:31:17.577Z,100.00
2023-01-29T09:33:44.426Z,100.00
2023-01-29T09:36:13.770Z,100.00
2023-01-29T09:38:40.611Z,100.00
2023-01-29T09:41:24.155Z,100.00
2023-01-29T09:43:58.091Z,100.00
2023-01-29T09:46:33.812Z,100.00
2023-01-29T09:49:06.253Z,100.00
2023-01-29T09:51:38.514Z,100.00
2023-01-29T09:54:17.338Z,100.00
2023-01-29T09:56:46.142Z,100.00
2023-01-29T09:59:17.190Z,100.00
2023-01-29T10:01:55.563Z,100.00
2023-01-29T10:04:50.567Z,100.00
2023-01-29T10:07:32.921Z,100.00
2023-01-29T10:10:16.215Z,100.00
2023-01-29T10:12:57.370Z,100.00
2023-01-29T10:15:38.332Z,100.00
2023-01-29T10:18:33.974Z,100.00
2023-01-29T10:21:11.540Z,100.00
2023-01-29T10:23:42.923Z,100.00
2023-01-29T10:26:11.611Z,100.00
2023-01-29T10:28:42.950Z,100.00
2023-01-29T10:31:13.193Z,100.00
2023-01-29T10:33:49.140Z,100.00
2023-01-29T10:36:34.772Z,100.00
2023-01-29T10:39:02.942Z,100.00
2023-01-29T10:41:56.370Z,100.00
2023-01-29T10:44:37.859Z,100.00
2023-01-29T10:47:31.926Z,100.00
2023-01-29T10:50:16.349Z,100.00
2023-01-29T10:53:04.685Z,100.00
2023-01-29T10:55:47.153Z,100.00
2023-01-29T10:58:26.843Z,100.00
2023-01-29T11:00:53.788Z,100.00
2023-01-29T11:03:28.418Z,100.00
2023-01-29T11:06:08.511Z,100.00
2023-01-29T11:08:43.612Z,100.00
2023-01-29T11:11:14.291Z,100.00
2023-01-29T11:13:46.675Z,100.00
2023-01-29T11:16:14.501Z,100.00
2023-01-29T11:18:56.485Z,100.00
2023-01-29T11:21:26.969Z,100.00
2023-01-29T11:24:15.107Z,100.00
2023-01-29T11:26:45.886Z,100.00
2023-01-29T11:29:42.518Z,100.00
2023-01-29T11:32:14.097Z,100.00
2023-01-29T11:34:57.759Z,100.00
2023-01-29T11:37:32.871Z,100.00
2023-01-29T11:39:59.821Z,100.00
2023-01-29T11:42:31.284Z,100.00
2023-01-29T11:44:58.110Z,100.00
2023-01-29T11:47:27.865Z,100.00
2023-01-29T11:49:56.275Z,100.00
2023-01-29T11:52:34.236Z,100.00
2023-01-29T11:55:05.429Z,100.00
2023-01-29T11:57:35.259Z,100.00
2023-01-29T12:00:05.185Z,100.00
2023-01-29T12:02:37.412Z,100.00
2023-01-29T12:05:15.652Z,100.00
2023-01-29T12:07:46.290Z,100.00
2023-01-29T12:10:30.710Z,100.00
2023-01-29T12:13:05.551Z,100.00
2023-01-29T12:15:32.311Z,100.00
2023-01-29T12:18:07.578Z,100.00
2023-01-29T12:20:39.439Z,100.00
2023-01-29T12:23:41.956Z,100.00
2023-01-29T12:26:12.948Z,100.00
2023-01-29T12:28:49.585Z,100.00
2023-01-29T12:31:27.050Z,100.00
2023-01-29T12:34:02.093Z,100.00
2023-01-29T12:36:38.456Z,100.00
2023-01-29T12:39:09.703Z,100.00
2023-01-29T12:41:46.551Z,100.00
2023-01-29T12:44:18.516Z,100.00
2023-01-29T12:46:49.425Z,100.00
2023-01-29T12:49:23.128Z,100.00
2023-01-29T12:52:00.442Z,100.00
2023-01-29T12:54:35.591Z,100.00
2023-01-29T12:57:11.436Z,100.00
2023-01-29T12:59:43.293Z,100.00
2023-01-29T13:02:23.618Z,100.00
2023-01-29T13:04:58.091Z,100.00
2023-01-29T13:07:32.908Z,100.00
2023-01-29T13:10:07.830Z,100.00
2023-01-29T13:12:36.199Z,100.00
2023-01-29T13:15:12.871Z,100.00
2023-01-29T13:17:45.210Z,100.00
2023-01-29T13:20:19.734Z,100.00
2023-01-29T13:22:49.504Z,100.00
2023-01-29T13:25:20.226Z,100.00
2023-01-29T13:27:48.902Z,100.00
2023-01-29T13:30:29.694Z,100.00
2023-01-29T13:32:59.310Z,100.00
2023-01-29T13:35:26.027Z,100.00
2023-01-29T13:37:54.977Z,100.00
2023-01-29T13:40:25.713Z,100.00
2023-01-29T13:42:54.872Z,100.00
2023-01-29T13:45:46.307Z,100.00
2023-01-29T13:48:26.585Z,100.00
2023-01-29T13:50:55.526Z,100.00
2023-01-29T13:53:28.022Z,100.00
2023-01-29T13:56:29.809Z,100.00
2023-01-29T13:58:58.221Z,100.00
2023-01-29T14:02:01.593Z,100.00
2023-01-29T14:04:30.157Z,100.00
2023-01-29T14:07:00.308Z,100.00
2023-01-29T14:10:01.061Z,100.00
2023-01-29T14:13:17.227Z,100.00
2023-01-29T14:15:45.035Z,100.00
2023-01-29T14:18:18.182Z,100.00
2023-01-29T14:21:02.381Z,100.00
2023-01-29T14:23:41.323Z,100.00
2023-01-29T14:26:24.381Z,100.00
2023-01-29T14:29:00.005Z,100.00
2023-01-29T14:31:32.283Z,100.00
2023-01-29T14:34:05.998Z,100.00
2023-01-29T14:36:40.287Z,100.00
2023-01-29T14:39:19.150Z,100.00
2023-01-29T14:41:46.098Z,100.00
2023-01-29T14:44:56.751Z,100.00
2023-01-29T14:48:03.167Z,100.00
2023-01-29T14:50:51.111Z,100.00
2023-01-29T14:53:30.288Z,100.00
2023-01-29T14:56:02.376Z,100.00
2023-01-29T14:58:39.086Z,100.00
2023-01-29T15:01:25.952Z,100.00
2023-01-29T15:03:58.752Z,100.00
2023-01-29T15:06:32.186Z,100.00
2023-01-29T15:09:05.557Z,100.00
2023-01-29T15:11:40.651Z,100.00
2023-01-29T15:14:18.857Z,100.00
2023-01-29T15:16:59.365Z,100.00
2023-01-29T15:19:31.920Z,100.00
2023-01-29T15:22:10.693Z,100.00
2023-01-29T15:24:38.981Z,100.00
2023-01-29T15:27:11.409Z,100.00
2023-01-29T15:29:39.552Z,100.00
2023-01-29T15:32:16.269Z,100.00
2023-01-29T15:34:43.918Z,100.00
2023-01-29T15:37:48.905Z,100.00
2023-01-29T15:40:20.127Z,100.00
2023-01-29T15:42:49.308Z,100.00
2023-01-29T15:45:33.507Z,100.00
2023-01-29T15:48:37.629Z,100.00
2023-01-29T15:51:08.747Z,100.00
2023-01-29T15:53:45.852Z,100.00
2023-01-29T15:56:16.404Z,100.00
2023-01-29T15:58:46.839Z,100.00
2023-01-29T16:01:14.163Z,100.00
2023-01-29T16:03:43.484Z,100.00
2023-01-29T16:06:11.861Z,100.00
2023-01-29T16:08:40.245Z,100.00
2023-01-29T16:11:08.770Z,100.00
2023-01-29T16:13:39.361Z,100.00
2023-01-29T16:16:19.861Z,100.00
2023-01-29T16:18:59.503Z,100.00
2023-01-29T16:21:30.715Z,100.00
2023-01-29T16:24:04.275Z,100.00
2023-01-29T16:26:35.261Z,100.00
2023-01-29T16:29:06.360Z,100.00
2023-01-29T16:31:35.660Z,100.00
2023-01-29T16:34:09.888Z,100.00
2023-01-29T16:36:46.697Z,100.00
2023-01-29T16:39:19.810Z,100.00
2023-01-29T16:42:19.264Z,100.00
2023-01-29T16:44:47.634Z,100.00
2023-01-29T16:47:20.599Z,100.00
2023-01-29T16:49:52.251Z,100.00
2023-01-29T16:52:23.622Z,100.00
2023-01-29T16:54:58.282Z,100.00
2023-01-29T16:57:31.915Z,100.00
2023-01-29T17:00:04.444Z,100.00
2023-01-29T17:02:39.647Z,100.00
2023-01-29T17:05:18.158Z,100.00
2023-01-29T17:07:46.892Z,100.00
2023-01-29T17:10:20.011Z,100.00
2023-01-29T17:12:53.493Z,100.00
2023-01-29T17:15:33.066Z,100.00
2023-01-29T17:18:03.150Z,100.00
2023-01-29T17:20:34.322Z,100.00
2023-01-29T17:23:03.293Z,100.00
2023-01-29T17:25:30.307Z,100.00
2023-01-29T17:28:11.358Z,100.00
2023-01-29T17:31:05.768Z,100.00
2023-01-29T17:33:35.108Z,100.00
2023-01-29T17:36:13.151Z,100.00
2023-01-29T17:38:40.967Z,100.00
2023-01-29T17:41:12.061Z,100.00
2023-01-29T17:43:38.895Z,100.00
2023-01-29T17:46:05.974Z,100.00
2023-01-29T17:48:32.922Z,100.00
2023-01-29T17:51:03.664Z,100.00
2023-01-29T17:53:47.347Z,100.00
2023-01-29T17:56:16.552Z,100.00
2023-01-29T17:58:43.612Z,100.00
2023-01-29T18:01:10.523Z,100.00
2023-01-29T18:03:38.152Z,100.00
2023-01-29T18:06:10.389Z,100.00
2023-01-29T18:08:40.901Z,100.00
2023-01-29T18:11:12.400Z,100.00
2023-01-29T18:13:39.192Z,100.00
2023-01-29T18:16:06.692Z,100.00
2023-01-29T18:18:33.517Z,100.00
2023-01-29T18:21:00.508Z,100.00
2023-01-29T18:23:27.539Z,100.00
2023-01-29T18:25:59.636Z,100.00
2023-01-29T18:28:26.581Z,100.00
2023-01-29T18:30:53.813Z,100.00
2023-01-29T18:33:21.551Z,100.00
2023-01-29T18:35:48.923Z,100.00
2023-01-29T18:38:17.102Z,100.00
2023-01-29T18:40:46.285Z,100.00
2023-01-29T18:43:17.069Z,100.00
2023-01-29T18:45:44.482Z,100.00
2023-01-29T18:48:11.652Z,100.00
2023-01-29T18:50:38.403Z,100.00
2023-01-29T18:53:09.590Z,100.00
2023-01-29T18:55:54.038Z,100.00
2023-01-29T18:58:25.501Z,100.00
2023-01-29T19:00:55.290Z,100.00
2023-01-29T19:03:22.578Z,100.00
2023-01-29T19:05:50.277Z,100.00
2023-01-29T19:08:17.360Z,100.00
2023-01-29T19:10:44.231Z,100.00
2023-01-29T19:13:11.238Z,100.00
2023-01-29T19:15:43.644Z,100.00
2023-01-29T19:18:12.069Z,100.00
2023-01-29T19:20:41.137Z,100.00
2023-01-29T19:23:11.434Z,100.00
2023-01-29T19:25:40.508Z,100.00
2023-01-29T19:28:07.613Z,100.00
2023-01-29T19:30:38.000Z,100.00
2023-01-29T19:33:14.692Z,100.00
2023-01-29T19:35:45.966Z,100.00
2023-01-29T19:38:12.759Z,100.00
2023-01-29T19:40:39.583Z,100.00
2023-01-29T19:43:06.626Z,100.00
2023-01-29T19:45:49.976Z,100.00
2023-01-29T19:48:19.421Z,100.00
2023-01-29T19:50:52.269Z,100.00
2023-01-29T19:53:21.941Z,100.00
2023-01-29T19:55:56.409Z,100.00
2023-01-29T19:58:23.516Z,100.00
2023-01-29T20:00:54.768Z,100.00
2023-01-29T20:03:24.053Z,100.00
2023-01-29T20:05:51.029Z,100.00
2023-01-29T20:08:19.929Z,100.00
2023-01-29T20:10:47.788Z,100.00
2023-01-29T20:13:15.506Z,100.00
2023-01-29T20:15:44.372Z,100.00
2023-01-29T20:18:12.377Z,100.00
2023-01-29T20:20:41.624Z,100.00
2023-01-29T20:23:09.289Z,100.00
2023-01-29T20:25:36.609Z,100.00
2023-01-29T20:28:04.398Z,100.00
2023-01-29T20:30:32.134Z,100.00
2023-01-29T20:32:59.295Z,100.00
2023-01-29T20:35:27.109Z,100.00
2023-01-29T20:37:55.561Z,100.00
2023-01-29T20:40:22.745Z,100.00
2023-01-29T20:42:49.833Z,100.00
2023-01-29T20:45:17.728Z,100.00
2023-01-29T20:47:45.473Z,100.00
2023-01-29T20:50:14.839Z,100.00
2023-01-29T20:52:42.524Z,100.00
2023-01-29T20:55:15.415Z,100.00
2023-01-29T20:57:42.823Z,100.00
2023-01-29T21:00:12.035Z,100.00
2023-01-29T21:02:39.486Z,100.00
2023-01-29T21:05:07.128Z,100.00
2023-01-29T21:07:34.123Z,100.00
2023-01-29T21:10:02.278Z,100.00
2023-01-29T21:12:30.722Z,100.00
2023-01-29T21:14:57.478Z,100.00
2023-01-29T21:17:26.686Z,100.00
2023-01-29T21:19:54.687Z,100.00
2023-01-29T21:22:21.751Z,100.00
2023-01-29T21:24:48.656Z,100.00
2023-01-29T21:27:15.704Z,100.00
2023-01-29T21:29:44.034Z,100.00
2023-01-29T21:32:10.962Z,100.00
2023-01-29T21:34:37.809Z,100.00
2023-01-29T21:37:04.557Z,100.00
2023-01-29T21:39:32.925Z,100.00
2023-01-29T21:42:00.039Z,100.00
2023-01-29T21:44:27.459Z,100.00
2023-01-29T21:46:56.284Z,100.00
2023-01-29T21:49:23.777Z,100.00
2023-01-29T21:51:51.291Z,100.00
2023-01-29T21:54:18.386Z,100.00
2023-01-29T21:56:45.186Z,100.00
2023-01-29T21:59:11.962Z,100.00
2023-01-29T22:01:38.984Z,100.00
2023-01-29T22:04:07.706Z,100.00
2023-01-29T22:06:34.474Z,100.00
2023-01-29T22:09:01.508Z,100.00
2023-01-29T22:11:28.542Z,100.00
2023-01-29T22:13:55.330Z,100.00
2023-01-29T22:16:24.235Z,100.00
2023-01-29T22:18:51.002Z,100.00
2023-01-29T22:21:19.890Z,100.00
2023-01-29T22:23:48.489Z,100.00
2023-01-29T22:26:15.860Z,100.00
2023-01-29T22:28:42.937Z,100.00
2023-01-29T22:31:10.480Z,100.00
2023-01-29T22:33:37.425Z,100.00
2023-01-29T22:36:05.185Z,100.00
2023-01-29T22:38:33.359Z,100.00
2023-01-29T22:41:02.560Z,100.00
2023-01-29T22:43:30.447Z,100.00
2023-01-29T22:45:57.327Z,100.00
2023-01-29T22:48:24.722Z,100.00
2023-01-29T22:50:56.420Z,100.00
2023-01-29T22:53:23.688Z,100.00
2023-01-29T22:55:55.513Z,100.00
2023-01-29T22:58:22.916Z,100.00
2023-01-29T23:00:52.548Z,100.00
2023-01-29T23:03:20.111Z,100.00
2023-01-29T23:05:46.853Z,100.00
2023-01-29T23:08:13.953Z,100.00
2023-01-29T23:10:42.904Z,100.00
2023-01-29T23:13:12.701Z,100.00
2023-01-29T23:15:39.774Z,100.00
2023-01-29T23:18:06.682Z,100.00
2023-01-29T23:20:33.673Z,100.00
2023-01-29T23:23:00.783Z,100.00
2023-01-29T23:25:27.512Z,100.00
2023-01-29T23:27:54.298Z,100.00
2023-01-29T23:30:22.545Z,100.00
2023-01-29T23:32:49.741Z,100.00
2023-01-29T23:35:16.759Z,100.00
2023-01-29T23:37:43.675Z,100.00
2023-01-29T23:40:11.903Z,100.00
2023-01-29T23:42:47.711Z,100.00
2023-01-29T23:45:14.907Z,100.00
2023-01-29T23:47:43.158Z,100.00
2023-01-29T23:50:11.458Z,100.00
2023-01-29T23:52:40.326Z,100.00
2023-01-29T23:55:09.717Z,100.00
2023-01-29T23:57:38.434Z,100.00
